Time;durP1;ratioP1;P1;durP2;ratioP2;P2;SDS_P1;SDS_P2;PMS_P1;PMS_P2;Temp;Humidity;BMP_temperature;BMP_pressure;BME280_temperature;BME280_humidity;BME280_pressure;Samples;Min_cycle;Max_cycle;Signal;HPM_P1;HPM_P2
2024/01/10 00:02:20;;;;;;;11.00;9.77;;;;;;;-4.50;54.16;102796.69;4975359;28;20433;-69
2024/01/10 00:04:46;;;;;;;15.83;9.50;;;;;;;-4.44;53.82;102794.03;4975299;28;20433;-69
2024/01/10 00:07:13;;;;;;;11.20;9.70;;;;;;;-4.54;54.35;102794.97;4975651;28;20432;-69
2024/01/10 00:09:39;;;;;;;14.97;10.87;;;;;;;-4.45;53.37;102792.31;4975124;28;20438;-70
2024/01/10 00:12:06;;;;;;;11.30;9.90;;;;;;;-4.55;54.25;102786.28;4975593;28;20417;-70
2024/01/10 00:14:32;;;;;;;16.10;9.53;;;;;;;-4.65;54.41;102788.03;4974958;28;20501;-70
2024/01/10 00:16:59;;;;;;;11.97;10.37;;;;;;;-4.69;54.50;102788.06;4974742;28;20467;-70
2024/01/10 00:19:25;;;;;;;13.77;9.20;;;;;;;-4.67;54.81;102787.16;4975162;28;20862;-70
2024/01/10 00:21:51;;;;;;;15.13;10.77;;;;;;;-4.73;55.23;102770.66;4974855;28;20489;-70
2024/01/10 00:24:19;;;;;;;14.90;9.37;;;;;;;-4.82;55.84;102771.56;4975071;28;20434;-70
2024/01/10 00:26:45;;;;;;;14.83;10.17;;;;;;;-4.85;55.93;102771.59;4975274;28;20433;-70
2024/01/10 00:29:12;;;;;;;12.60;10.37;;;;;;;-4.84;56.58;102773.34;4974977;28;20878;-69
2024/01/10 00:31:39;;;;;;;19.07;11.10;;;;;;;-4.95;57.17;102769.84;4974731;28;20525;-69
2024/01/10 00:34:06;;;;;;;16.43;10.77;;;;;;;-4.95;57.89;102772.47;4974708;28;20872;-69
2024/01/10 00:36:32;;;;;;;16.10;10.63;;;;;;;-4.97;57.83;102769.00;4974785;28;20988;-69
2024/01/10 00:38:58;;;;;;;19.20;10.67;;;;;;;-4.94;58.02;102770.72;4974527;28;20500;-69
2024/01/10 00:41:25;;;;;;;13.43;11.20;;;;;;;-5.07;59.12;102773.38;4974979;28;20427;-69
2024/01/10 00:43:51;;;;;;;13.90;10.47;;;;;;;-5.02;58.65;102767.28;4974808;28;20429;-69
2024/01/10 00:46:18;;;;;;;16.80;10.83;;;;;;;-5.05;58.58;102765.56;4974789;28;20800;-69
2024/01/10 00:48:44;;;;;;;13.03;10.87;;;;;;;-5.17;59.59;102768.16;4974433;28;20453;-69
2024/01/10 00:51:11;;;;;;;21.53;11.70;;;;;;;-5.21;59.96;102771.63;4975235;28;20523;-69
2024/01/10 00:53:42;;;;;;;18.63;11.43;;;;;;;-5.25;59.93;102775.13;4974664;28;20447;-69
2024/01/10 00:56:09;;;;;;;22.87;12.23;;;;;;;-5.21;60.23;102758.59;4974568;28;20448;-69
2024/01/10 00:58:35;;;;;;;17.57;11.23;;;;;;;-5.20;59.95;102758.63;4974827;28;20452;-69
2024/01/10 01:01:02;;;;;;;13.60;10.67;;;;;;;-5.25;59.93;102765.56;4974581;28;20433;-69
2024/01/10 01:03:28;;;;;;;12.67;11.07;;;;;;;-5.27;60.57;102761.25;4974646;28;20443;-69
2024/01/10 01:05:55;;;;;;;13.13;10.97;;;;;;;-5.35;60.41;102758.66;4974522;28;20520;-69
2024/01/10 01:08:21;;;;;;;13.23;10.17;;;;;;;-5.37;60.03;102756.88;4974306;28;20834;-69
2024/01/10 01:10:48;;;;;;;20.90;12.03;;;;;;;-5.38;60.50;102762.97;4974258;28;20451;-69
2024/01/10 01:13:14;;;;;;;19.23;11.57;;;;;;;-5.37;60.97;102751.69;4974211;28;20471;-69
2024/01/10 01:15:41;;;;;;;18.30;11.57;;;;;;;-5.42;60.39;102746.47;4974159;28;20511;-69
2024/01/10 01:18:09;;;;;;;16.27;10.90;;;;;;;-5.55;61.00;102758.63;4974183;28;20514;-69
2024/01/10 01:20:36;;;;;;;12.13;10.10;;;;;;;-5.45;61.85;102756.03;4974179;28;20852;-69
2024/01/10 01:23:02;;;;;;;21.80;11.67;;;;;;;-5.49;61.79;102749.09;4974431;28;20469;-69
2024/01/10 01:25:29;;;;;;;16.67;11.17;;;;;;;-5.57;62.06;102755.19;4974180;28;20435;-69
2024/01/10 01:27:55;;;;;;;19.40;12.13;;;;;;;-5.62;62.82;102753.44;4974366;28;20516;-69
2024/01/10 01:30:22;;;;;;;19.47;11.23;;;;;;;-5.65;62.02;102745.63;4974536;28;20436;-70
2024/01/10 01:32:48;;;;;;;18.50;11.57;;;;;;;-5.53;61.88;102746.50;4974312;28;20431;-69
2024/01/10 01:35:21;;;;;;;15.20;11.27;;;;;;;-5.57;62.18;102743.88;4973986;28;20435;-69
2024/01/10 01:37:48;;;;;;;18.00;11.50;;;;;;;-5.70;62.47;102740.41;4973979;28;20542;-69
2024/01/10 01:40:15;;;;;;;24.37;12.27;;;;;;;-5.67;62.76;102742.13;4973992;28;20447;-69
2024/01/10 01:42:44;;;;;;;14.33;11.43;;;;;;;-5.64;62.94;102743.00;4973947;28;20939;-69
2024/01/10 01:45:11;;;;;;;20.27;11.83;;;;;;;-5.60;63.02;102742.13;4973980;28;20491;-69
2024/01/10 01:47:39;;;;;;;21.53;12.63;;;;;;;-5.61;62.51;102727.38;4974950;28;20454;-69
2024/01/10 01:50:07;;;;;;;21.17;12.67;;;;;;;-5.65;63.58;102732.59;4977942;28;20998;-69
2024/01/10 01:52:34;;;;;;;19.03;12.03;;;;;;;-5.64;63.37;102735.19;4977547;28;20435;-69
2024/01/10 01:55:01;;;;;;;16.50;11.97;;;;;;;-5.71;63.61;102735.19;4978018;28;20556;-69
2024/01/10 01:57:28;;;;;;;20.60;12.00;;;;;;;-5.75;63.59;102736.06;4977376;28;20478;-68
2024/01/10 01:59:55;;;;;;;23.03;11.57;;;;;;;-5.67;64.00;102735.19;4977441;28;20486;-68
2024/01/10 02:02:21;;;;;;;24.30;12.00;;;;;;;-5.75;63.70;102728.25;4977675;28;20428;-69
2024/01/10 02:04:48;;;;;;;18.23;11.97;;;;;;;-5.78;63.79;102723.91;4977334;28;20518;-69
2024/01/10 02:07:14;;;;;;;14.13;10.57;;;;;;;-5.80;63.56;102719.56;4977742;28;20428;-68
2024/01/10 02:09:41;;;;;;;14.57;10.70;;;;;;;-5.80;63.96;102717.81;4977111;28;20943;-69
2024/01/10 02:12:07;;;;;;;18.70;11.83;;;;;;;-5.83;63.98;102720.44;4977504;28;20467;-69
2024/01/10 02:14:34;;;;;;;17.23;11.53;;;;;;;-5.82;63.99;102716.09;4978249;28;20490;-69
2024/01/10 02:17:00;;;;;;;16.50;11.87;;;;;;;-5.88;64.20;102719.59;4977020;28;20491;-69
2024/01/10 02:19:29;;;;;;;18.10;11.13;;;;;;;-5.92;65.13;102725.66;4977078;28;20440;-69
2024/01/10 02:21:56;;;;;;;14.73;11.10;;;;;;;-5.83;64.81;102725.66;4977312;28;20490;-69
2024/01/10 02:24:22;;;;;;;21.27;11.37;;;;;;;-5.90;64.53;102721.34;4976992;28;20436;-69
2024/01/10 02:26:49;;;;;;;14.20;11.03;;;;;;;-5.94;64.95;102719.56;4976945;28;20436;-69
2024/01/10 02:29:16;;;;;;;20.40;11.73;;;;;;;-5.97;64.86;102718.72;4976829;28;20454;-69
2024/01/10 02:31:42;;;;;;;20.60;11.60;;;;;;;-5.98;65.49;102706.59;4977097;28;20444;-69
2024/01/10 02:34:09;;;;;;;17.67;10.80;;;;;;;-5.94;64.71;102710.91;4976827;28;20522;-69
2024/01/10 02:36:36;;;;;;;13.03;11.10;;;;;;;-5.97;65.42;102705.69;4976963;28;20467;-69
2024/01/10 02:39:02;;;;;;;18.40;11.30;;;;;;;-5.99;65.60;102704.84;4976710;28;20502;-69
2024/01/10 02:41:29;;;;;;;16.27;11.03;;;;;;;-5.95;65.05;102698.75;4976728;28;20435;-69
2024/01/10 02:43:58;;;;;;;18.13;12.63;;;;;;;-5.97;65.09;102708.28;4976881;28;20486;-69
2024/01/10 02:46:27;;;;;;;14.40;10.57;;;;;;;-6.08;65.63;102716.97;4977148;28;20448;-69
2024/01/10 02:48:55;;;;;;;16.13;11.40;;;;;;;-6.09;65.83;102717.84;4976511;28;20455;-69
2024/01/10 02:51:22;;;;;;;24.97;12.07;;;;;;;-6.13;65.92;102713.50;4976717;28;20432;-69
2024/01/10 02:53:49;;;;;;;13.80;10.53;;;;;;;-6.15;66.05;102709.13;4976435;28;20440;-69
2024/01/10 02:56:15;;;;;;;19.27;11.20;;;;;;;-6.11;65.88;102695.28;4976591;28;20467;-69
2024/01/10 02:58:42;;;;;;;19.37;11.40;;;;;;;-6.09;65.98;102706.56;4976024;28;20454;-69
2024/01/10 03:01:09;;;;;;;16.40;10.70;;;;;;;-6.18;66.00;102711.75;4975828;28;20432;-69
2024/01/10 03:03:35;;;;;;;12.57;10.67;;;;;;;-6.15;66.68;102706.53;4976571;28;20991;-69
2024/01/10 03:06:02;;;;;;;19.50;11.67;;;;;;;-6.12;66.48;102703.97;4976577;28;20432;-70
2024/01/10 03:08:28;;;;;;;20.43;11.13;;;;;;;-6.28;66.66;102704.81;4976572;28;20463;-69
2024/01/10 03:10:55;;;;;;;16.97;11.10;;;;;;;-6.21;66.42;102699.59;4958850;28;20455;-69
2024/01/10 03:13:21;;;;;;;19.43;9.93;;;;;;;-6.23;66.79;102698.72;4976097;28;20935;-69
2024/01/10 03:15:48;;;;;;;20.40;11.53;;;;;;;-6.25;66.78;102702.19;4976537;28;20428;-69
2024/01/10 03:18:14;;;;;;;20.47;12.43;;;;;;;-6.23;67.11;102690.03;4975961;28;20456;-69
2024/01/10 03:20:41;;;;;;;19.43;11.27;;;;;;;-6.23;67.50;102695.25;4975984;28;20427;-69
2024/01/10 03:23:07;;;;;;;18.53;11.33;;;;;;;-6.24;66.79;102688.31;4975944;28;20436;-69
2024/01/10 03:25:34;;;;;;;19.90;12.00;;;;;;;-6.28;66.85;102683.97;4976470;28;20412;-69
2024/01/10 03:28:00;;;;;;;18.73;12.40;;;;;;;-6.31;67.62;102684.81;4975760;28;20471;-69
2024/01/10 03:30:27;;;;;;;24.60;13.23;;;;;;;-6.25;67.27;102674.44;4975785;28;20432;-69
2024/01/10 03:32:53;;;;;;;23.60;11.43;;;;;;;-6.33;67.73;102673.56;4975741;28;20435;-69
2024/01/10 03:35:20;;;;;;;23.23;13.70;;;;;;;-6.34;67.29;102669.22;4975933;28;20487;-69
2024/01/10 03:37:46;;;;;;;14.70;11.43;;;;;;;-6.37;67.63;102676.16;4975776;28;20495;-69
2024/01/10 03:40:13;;;;;;;17.27;11.60;;;;;;;-6.34;67.88;102670.94;4975923;28;20440;-69
2024/01/10 03:42:39;;;;;;;21.40;12.23;;;;;;;-6.25;67.65;102669.25;4975840;28;20431;-69
2024/01/10 03:45:06;;;;;;;18.47;12.67;;;;;;;-6.21;67.10;102670.97;4975543;28;20435;-69
2024/01/10 03:47:32;;;;;;;15.37;11.23;;;;;;;-6.26;67.20;102670.09;4976030;28;20506;-69
2024/01/10 03:49:59;;;;;;;20.93;13.73;;;;;;;-6.32;67.89;102667.47;4976041;28;20412;-69
2024/01/10 03:52:25;;;;;;;20.17;12.53;;;;;;;-6.29;68.40;102669.22;4975967;28;20432;-69
2024/01/10 03:54:52;;;;;;;23.87;12.23;;;;;;;-6.15;67.08;102675.28;4975613;28;20415;-69
2024/01/10 03:57:18;;;;;;;16.47;11.30;;;;;;;-6.26;67.69;102674.44;4975159;28;20462;-69
2024/01/10 03:59:45;;;;;;;19.50;11.43;;;;;;;-6.24;67.24;102677.91;4975229;28;20502;-69
2024/01/10 04:02:11;;;;;;;21.17;12.47;;;;;;;-6.26;67.34;102677.03;4975461;28;20933;-69
2024/01/10 04:04:38;;;;;;;21.17;12.23;;;;;;;-6.25;67.65;102676.16;4975443;28;20426;-69
2024/01/10 04:07:06;;;;;;;19.67;12.00;;;;;;;-6.33;67.95;102676.16;4975071;28;20424;-69
2024/01/10 04:09:32;;;;;;;26.10;12.17;;;;;;;-6.30;67.77;102673.56;4975133;28;20435;-69
2024/01/10 04:11:58;;;;;;;32.20;13.03;;;;;;;-6.32;67.63;102687.44;4974998;28;20416;-69
2024/01/10 04:14:25;;;;;;;22.80;12.23;;;;;;;-6.35;67.78;102680.47;4975319;28;20412;-69
2024/01/10 04:16:53;;;;;;;18.27;12.10;;;;;;;-6.34;67.96;102683.97;4975689;28;20789;-69
2024/01/10 04:19:20;;;;;;;20.83;12.83;;;;;;;-6.43;67.89;102676.13;4975135;28;20488;-69
2024/01/10 04:21:47;;;;;;;18.10;12.43;;;;;;;-6.38;67.78;102672.69;4975181;28;20438;-69
2024/01/10 04:24:13;;;;;;;19.23;13.00;;;;;;;-6.44;67.80;102680.47;4974871;28;20432;-69
2024/01/10 04:26:40;;;;;;;23.90;13.80;;;;;;;-6.40;67.42;102670.91;4974858;28;20434;-69
2024/01/10 04:29:06;;;;;;;19.67;12.87;;;;;;;-6.45;67.98;102673.53;4974704;28;20455;-69
2024/01/10 04:31:32;;;;;;;24.17;13.10;;;;;;;-6.41;68.28;102675.28;4975269;28;20526;-69
2024/01/10 04:33:59;;;;;;;20.30;13.07;;;;;;;-6.50;67.98;102678.75;4975210;28;21007;-69
2024/01/10 04:36:25;;;;;;;16.03;11.37;;;;;;;-6.45;68.38;102673.53;4974815;28;20827;-69
2024/01/10 04:38:52;;;;;;;22.30;13.03;;;;;;;-6.46;68.00;102674.41;4974560;28;20507;-68
2024/01/10 04:41:19;;;;;;;20.07;12.33;;;;;;;-6.51;67.89;102676.13;4974575;28;20487;-68
2024/01/10 04:43:45;;;;;;;20.90;12.53;;;;;;;-6.48;68.01;102679.59;4974552;28;20518;-68
2024/01/10 04:46:11;;;;;;;18.57;12.37;;;;;;;-6.53;68.15;102686.50;4974593;28;20782;-68
2024/01/10 04:48:38;;;;;;;20.17;11.97;;;;;;;-6.52;68.06;102683.06;4974466;28;20455;-68
2024/01/10 04:51:04;;;;;;;22.07;12.07;;;;;;;-6.44;67.49;102679.59;4957102;28;20444;-68
2024/01/10 04:53:31;;;;;;;17.43;12.50;;;;;;;-6.44;67.58;102680.47;4974636;28;20482;-68
2024/01/10 04:55:57;;;;;;;29.83;13.03;;;;;;;-6.43;67.40;102676.13;4974653;28;20848;-68
2024/01/10 04:58:24;;;;;;;23.80;12.80;;;;;;;-6.58;68.19;102672.66;4974470;28;20971;-68
2024/01/10 05:00:50;;;;;;;18.73;12.57;;;;;;;-6.47;67.98;102676.13;4974369;28;20436;-68
2024/01/10 05:03:17;;;;;;;17.00;12.37;;;;;;;-6.50;67.77;102675.25;4974317;28;21002;-68
2024/01/10 05:05:43;;;;;;;27.87;12.53;;;;;;;-6.52;68.05;102669.19;4974525;28;20946;-68
2024/01/10 05:08:10;;;;;;;20.77;12.40;;;;;;;-6.50;67.97;102664.84;4974168;28;20459;-68
2024/01/10 05:10:36;;;;;;;19.73;13.53;;;;;;;-6.59;68.28;102667.44;4974169;28;21052;-68
2024/01/10 05:13:03;;;;;;;24.00;12.30;;;;;;;-6.58;67.83;102664.84;4974474;28;20431;-68
2024/01/10 05:15:29;;;;;;;22.27;12.53;;;;;;;-6.66;68.15;102666.53;4974279;28;20849;-68
2024/01/10 05:17:56;;;;;;;14.97;11.50;;;;;;;-6.61;68.44;102666.53;4974268;28;20471;-68
2024/01/10 05:20:22;;;;;;;21.47;13.30;;;;;;;-6.50;67.55;102657.06;4974135;28;20467;-68
2024/01/10 05:22:49;;;;;;;21.77;13.67;;;;;;;-6.65;68.12;102657.88;4974966;28;20951;-68
2024/01/10 05:25:18;;;;;;;21.83;13.07;;;;;;;-6.61;68.07;102672.63;4978628;28;20527;-68
2024/01/10 05:27:44;;;;;;;25.57;12.13;;;;;;;-6.64;68.85;102667.41;4977890;28;20452;-68
2024/01/10 05:30:12;;;;;;;22.33;12.40;;;;;;;-6.76;68.85;102675.19;4978261;28;20927;-68
2024/01/10 05:32:39;;;;;;;43.63;19.27;;;;;;;-6.79;68.65;102669.97;4978759;28;20467;-68
2024/01/10 05:35:05;;;;;;;23.10;13.30;;;;;;;-6.70;68.75;102670.00;4977943;28;20436;-68
2024/01/10 05:37:32;;;;;;;22.33;13.73;;;;;;;-6.69;68.72;102660.47;4977752;28;20472;-68
2024/01/10 05:39:59;;;;;;;19.77;12.57;;;;;;;-6.59;68.29;102654.44;4978357;28;20482;-68
2024/01/10 05:42:26;;;;;;;19.67;12.13;;;;;;;-6.64;68.88;102641.41;4977788;28;20939;-68
2024/01/10 05:44:53;;;;;;;21.77;12.77;;;;;;;-6.69;68.74;102658.72;4977983;28;20435;-69
2024/01/10 05:47:19;;;;;;;24.67;12.73;;;;;;;-6.66;68.81;102661.31;4977892;28;20451;-68
2024/01/10 05:49:45;;;;;;;20.00;12.57;;;;;;;-6.53;67.91;102654.41;4977629;28;20440;-68
2024/01/10 05:52:12;;;;;;;22.10;12.70;;;;;;;-6.55;67.60;102648.38;4977913;28;20490;-68
2024/01/10 05:54:39;;;;;;;28.70;12.77;;;;;;;-6.60;68.27;102661.34;4977552;28;20927;-68
2024/01/10 05:57:05;;;;;;;23.20;13.60;;;;;;;-6.64;68.47;102670.03;4977632;28;20879;-68
2024/01/10 05:59:32;;;;;;;22.53;12.60;;;;;;;-6.63;68.64;102660.50;4977732;28;20444;-68
2024/01/10 06:01:58;;;;;;;22.07;12.80;;;;;;;-6.59;68.51;102659.63;4977611;28;20501;-68
2024/01/10 06:04:25;;;;;;;22.03;13.60;;;;;;;-6.67;68.87;102658.75;4977851;28;20502;-70
2024/01/10 06:06:51;;;;;;;26.73;13.33;;;;;;;-6.67;69.11;102661.34;4977844;28;20824;-69
2024/01/10 06:09:21;;;;;;;24.97;14.00;;;;;;;-6.59;68.81;102657.03;4977222;28;20444;-68
2024/01/10 06:11:48;;;;;;;22.80;13.43;;;;;;;-6.60;68.95;102653.56;4977578;28;20428;-68
2024/01/10 06:14:15;;;;;;;19.27;12.93;;;;;;;-6.49;68.82;102653.56;4977749;28;20486;-68
2024/01/10 06:16:41;;;;;;;32.17;14.40;;;;;;;-6.53;68.72;102655.28;4977383;28;20836;-68
2024/01/10 06:19:08;;;;;;;21.37;13.37;;;;;;;-6.51;68.25;102650.97;4977062;28;20451;-68
2024/01/10 06:21:34;;;;;;;35.60;14.53;;;;;;;-6.53;68.47;102660.50;4977049;28;20432;-68
2024/01/10 06:24:01;;;;;;;25.73;14.23;;;;;;;-6.53;68.13;102655.28;4977070;28;20816;-68
2024/01/10 06:26:28;;;;;;;29.40;14.07;;;;;;;-6.56;68.21;102652.69;4977343;28;20436;-68
2024/01/10 06:28:55;;;;;;;26.67;14.63;;;;;;;-6.40;67.60;102647.50;4976980;28;20515;-68
2024/01/10 06:31:21;;;;;;;22.30;14.17;;;;;;;-6.51;68.30;102645.78;4977438;28;20432;-68
2024/01/10 06:33:48;;;;;;;29.53;14.90;;;;;;;-6.42;67.65;102644.06;4976764;28;20416;-68
2024/01/10 06:36:14;;;;;;;24.03;14.27;;;;;;;-6.48;68.31;102635.38;4976802;28;20436;-68
2024/01/10 06:38:41;;;;;;;21.17;12.67;;;;;;;-6.56;68.69;102646.63;4976624;28;20479;-68
2024/01/10 06:41:13;;;;;;;26.27;14.03;;;;;;;-6.46;67.70;102651.00;4977268;28;20518;-68
2024/01/10 06:43:43;;;;;;;21.97;13.33;;;;;;;-6.50;68.22;102650.13;4976977;28;20416;-68
2024/01/10 06:46:10;;;;;;;32.07;14.80;;;;;;;-6.43;68.18;102642.31;4976869;28;20436;-68
2024/01/10 06:48:37;;;;;;;22.83;14.00;;;;;;;-6.46;68.18;102656.19;4976560;28;20448;-68
2024/01/10 06:51:15;;;;;;;30.63;15.57;;;;;;;-6.46;68.64;102656.19;4976620;28;20515;-68
2024/01/10 06:53:41;;;;;;;28.63;14.13;;;;;;;-6.42;68.24;102651.84;4977649;28;20804;-68
2024/01/10 06:56:09;;;;;;;32.93;15.27;;;;;;;-6.55;68.54;102662.25;4976395;28;20432;-68
2024/01/10 06:58:36;;;;;;;35.97;14.80;;;;;;;-6.53;68.98;102660.50;4976335;28;20491;-68
2024/01/10 07:01:05;;;;;;;32.33;14.47;;;;;;;-6.53;68.79;102650.09;4976894;28;20436;-69
2024/01/10 07:03:32;;;;;;;33.50;15.17;;;;;;;-6.51;68.38;102657.91;4976346;28;20431;-69
2024/01/10 07:05:58;;;;;;;33.03;15.97;;;;;;;-6.35;67.96;102654.47;4977059;28;20475;-69
2024/01/10 07:08:26;;;;;;;26.70;14.93;;;;;;;-6.48;68.39;102650.97;4976123;28;20440;-69
2024/01/10 07:10:55;;;;;;;27.97;15.40;;;;;;;-6.45;68.70;102655.34;4976189;28;20876;-69
2024/01/10 07:13:22;;;;;;;28.33;16.13;;;;;;;-6.45;69.11;102657.94;4976705;28;20435;-69
2024/01/10 07:15:50;;;;;;;27.73;15.90;;;;;;;-6.47;68.19;102655.31;4976425;28;20412;-68
2024/01/10 07:18:17;;;;;;;28.73;15.37;;;;;;;-6.38;68.10;102653.59;4975909;28;20579;-68
2024/01/10 07:20:43;;;;;;;31.53;15.97;;;;;;;-6.43;68.11;102652.72;4975942;28;20487;-68
2024/01/10 07:23:10;;;;;;;25.77;14.77;;;;;;;-6.50;68.05;102659.66;4975920;28;20490;-68
2024/01/10 07:25:37;;;;;;;31.83;15.90;;;;;;;-6.48;68.00;102658.78;4976675;28;20439;-69
2024/01/10 07:28:04;;;;;;;19.70;14.07;;;;;;;-6.44;68.29;102656.19;4975943;28;20458;-69
2024/01/10 07:30:32;;;;;;;34.43;17.27;;;;;;;-6.41;67.91;102654.47;4975850;28;20538;-69
2024/01/10 07:32:59;;;;;;;33.30;15.93;;;;;;;-6.44;67.67;102648.38;4976305;28;20428;-69
2024/01/10 07:35:27;;;;;;;31.33;15.60;;;;;;;-6.32;67.89;102654.47;4975722;28;20799;-69
2024/01/10 07:37:54;;;;;;;31.67;15.30;;;;;;;-6.36;67.74;102657.06;4975831;28;20471;-68
2024/01/10 07:40:20;;;;;;;29.50;15.97;;;;;;;-6.38;68.04;102651.00;4975850;28;20450;-68
2024/01/10 07:42:47;;;;;;;34.03;16.17;;;;;;;-6.33;68.17;102655.34;4975518;28;20499;-69
2024/01/10 07:45:13;;;;;;;34.53;16.63;;;;;;;-6.36;67.74;102659.66;4974867;28;20840;-69
2024/01/10 07:47:40;;;;;;;26.00;15.60;;;;;;;-6.21;67.26;102663.16;4975361;28;20510;-69
2024/01/10 07:50:12;;;;;;;35.97;15.40;;;;;;;-6.24;67.71;102659.69;4975723;28;20531;-69
2024/01/10 07:52:40;;;;;;;29.57;14.77;;;;;;;-6.30;68.02;102665.75;4975698;28;20945;-69
2024/01/10 07:55:08;;;;;;;35.87;15.57;;;;;;;-6.32;67.97;102657.06;4975362;28;20958;-69
2024/01/10 07:57:35;;;;;;;30.33;15.83;;;;;;;-6.30;68.39;102652.75;4975431;28;20526;-68
2024/01/10 08:00:03;;;;;;;33.37;15.60;;;;;;;-6.23;67.16;102654.47;4975254;28;20440;-69
2024/01/10 08:02:34;;;;;;;31.27;16.67;;;;;;;-6.19;67.40;102655.34;4975260;28;20478;-69
2024/01/10 08:05:05;;;;;;;32.30;16.67;;;;;;;-6.24;67.26;102642.34;4975288;28;20432;-69
2024/01/10 08:07:36;;;;;;;29.97;15.80;;;;;;;-6.18;67.42;102646.69;4975634;28;20797;-69
2024/01/10 08:10:08;;;;;;;31.20;15.70;;;;;;;-6.09;66.76;102639.75;4975427;28;20447;-69
2024/01/10 08:12:38;;;;;;;40.47;16.97;;;;;;;-6.16;66.70;102648.44;4975044;28;20427;-69
2024/01/10 08:15:08;;;;;;;30.83;16.17;;;;;;;-6.06;66.59;102639.72;4975594;28;20471;-69
2024/01/10 08:17:37;;;;;;;35.20;16.30;;;;;;;-6.01;66.27;102645.81;4975047;28;20964;-68
2024/01/10 08:20:08;;;;;;;29.00;16.50;;;;;;;-5.85;65.97;102645.75;4974882;28;21006;-68
2024/01/10 08:22:34;;;;;;;36.43;16.83;;;;;;;-5.92;65.94;102642.34;4975393;28;20464;-68
2024/01/10 08:25:02;;;;;;;30.23;16.07;;;;;;;-5.92;66.03;102647.56;4975079;28;20432;-68
2024/01/10 08:27:29;;;;;;;34.57;17.63;;;;;;;-5.85;65.99;102650.97;4974769;28;20868;-68
2024/01/10 08:29:55;;;;;;;32.20;16.90;;;;;;;-5.82;65.11;102646.66;4975033;28;20467;-68
2024/01/10 08:32:21;;;;;;;34.10;16.63;;;;;;;-5.77;65.72;102652.69;4974966;28;20438;-68
2024/01/10 08:34:48;;;;;;;38.03;17.87;;;;;;;-5.76;65.71;102653.56;4974734;28;20858;-69
2024/01/10 08:37:17;;;;;;;45.20;17.30;;;;;;;-5.70;65.56;102644.03;4974518;28;20440;-68
2024/01/10 08:39:44;;;;;;;35.83;17.43;;;;;;;-5.70;65.58;102651.84;4974548;28;20432;-68
2024/01/10 08:42:11;;;;;;;36.00;17.47;;;;;;;-5.56;64.95;102644.84;4974528;28;20436;-68
2024/01/10 08:44:40;;;;;;;32.90;16.77;;;;;;;-5.44;65.17;102645.72;4974782;28;20462;-68
2024/01/10 08:47:06;;;;;;;42.37;17.73;;;;;;;-5.40;64.53;102645.72;4974420;28;20935;-68
2024/01/10 08:49:33;;;;;;;31.50;17.17;;;;;;;-5.35;63.93;102643.97;4974424;28;20432;-68
2024/01/10 08:51:59;;;;;;;42.90;18.53;;;;;;;-5.22;64.22;102644.81;4974913;28;20475;-68
2024/01/10 08:54:26;;;;;;;32.83;17.73;;;;;;;-5.21;63.46;102643.91;4974406;28;20937;-68
2024/01/10 08:56:53;;;;;;;34.30;16.60;;;;;;;-5.20;62.23;102651.72;4974369;28;20498;-69
2024/01/10 08:59:19;;;;;;;33.30;16.90;;;;;;;-5.18;62.60;102662.16;4974159;28;20467;-69
2024/01/10 09:01:46;;;;;;;33.90;17.23;;;;;;;-5.07;62.63;102660.38;4974360;28;20855;-69
2024/01/10 09:04:12;;;;;;;42.50;17.43;;;;;;;-4.97;62.68;102663.81;4974273;28;20447;-69
2024/01/10 09:06:39;;;;;;;30.70;16.73;;;;;;;-4.95;62.91;102654.25;4974315;28;20448;-69
2024/01/10 09:09:05;;;;;;;34.70;17.00;;;;;;;-4.92;62.69;102664.69;4974408;28;20459;-67
2024/01/10 09:11:33;;;;;;;35.40;15.87;;;;;;;-4.87;62.12;102668.09;4974591;28;20437;-67
2024/01/10 09:14:05;;;;;;;33.07;15.90;;;;;;;-4.78;63.11;102662.84;4974155;28;20520;-67
2024/01/10 09:16:31;;;;;;;35.77;18.50;;;;;;;-4.84;61.99;102668.13;4974270;28;20935;-68
2024/01/10 09:18:58;;;;;;;38.03;19.47;;;;;;;-4.67;62.51;102668.91;4974052;28;20472;-67
2024/01/10 09:21:26;;;;;;;38.13;17.43;;;;;;;-4.72;62.10;102670.66;4974478;28;20432;-67
2024/01/10 09:23:53;;;;;;;32.90;16.90;;;;;;;-4.68;61.83;102682.81;4974354;28;20445;-67
2024/01/10 09:26:19;;;;;;;37.70;16.83;;;;;;;-4.52;61.84;102671.41;4974102;28;20437;-67
2024/01/10 09:28:46;;;;;;;48.67;18.83;;;;;;;-4.40;61.51;102670.47;4974633;28;20965;-71
2024/01/10 09:31:12;;;;;;;37.07;18.60;;;;;;;-4.41;61.40;102666.16;4974103;28;20455;-70
2024/01/10 09:33:40;;;;;;;36.33;17.60;;;;;;;-4.31;61.00;102670.41;4974110;28;20452;-71
2024/01/10 09:36:07;;;;;;;35.60;18.73;;;;;;;-4.22;61.27;102670.38;4974594;28;20472;-69
2024/01/10 09:38:37;;;;;;;35.90;17.70;;;;;;;-4.24;61.02;102669.50;4974054;28;20469;-68
2024/01/10 09:41:04;;;;;;;32.17;17.33;;;;;;;-4.11;59.94;102678.09;4974476;28;20897;-68
2024/01/10 09:43:33;;;;;;;36.70;18.80;;;;;;;-4.07;59.91;102679.84;4974418;28;20434;-68
2024/01/10 09:46:01;;;;;;;40.73;18.77;;;;;;;-4.00;60.21;102674.56;4974247;28;20438;-69
2024/01/10 09:48:29;;;;;;;43.00;19.37;;;;;;;-3.94;59.25;102669.28;4973808;28;20498;-68
2024/01/10 09:50:57;;;;;;;40.93;19.87;;;;;;;-4.00;59.75;102669.34;4974176;28;20430;-69
2024/01/10 09:53:26;;;;;;;44.17;18.83;;;;;;;-3.80;58.25;102677.00;4974130;28;20469;-68
2024/01/10 09:55:56;;;;;;;38.10;18.63;;;;;;;-3.78;58.05;102683.09;4974364;28;20443;-68
2024/01/10 09:58:25;;;;;;;38.20;19.33;;;;;;;-3.74;57.79;102677.84;4974262;28;20471;-68
2024/01/10 10:00:51;;;;;;;39.90;20.47;;;;;;;-3.73;58.99;102674.31;4973859;28;20822;-70
2024/01/10 10:03:19;;;;;;;39.60;19.53;;;;;;;-3.57;57.35;102672.44;4974069;28;20782;-70
2024/01/10 10:05:45;;;;;;;36.47;18.87;;;;;;;-3.46;57.34;102667.09;4973764;28;20436;-70
2024/01/10 10:08:22;;;;;;;41.83;19.53;;;;;;;-3.46;57.34;102670.59;4973716;28;20506;-70
2024/01/10 10:10:49;;;;;;;40.80;19.23;;;;;;;-3.31;57.33;102673.03;4977463;28;20453;-70
2024/01/10 10:13:29;;;;;;;37.37;19.70;;;;;;;-3.19;57.19;102668.56;4977248;28;20432;-70
2024/01/10 10:16:03;;;;;;;40.67;20.80;;;;;;;-2.98;55.71;102668.31;4977476;28;20461;-70
2024/01/10 10:18:34;;;;;;;58.63;19.77;;;;;;;-2.98;56.26;102661.34;4976954;28;20490;-70
2024/01/10 10:21:09;;;;;;;42.13;20.73;;;;;;;-3.00;56.05;102657.88;4977322;28;20451;-70
2024/01/10 10:23:37;;;;;;;47.23;19.77;;;;;;;-2.95;55.78;102658.69;4977034;28;20490;-70
2024/01/10 10:26:19;;;;;;;39.37;20.00;;;;;;;-2.97;55.50;102655.19;4977005;28;20435;-70
2024/01/10 10:28:47;;;;;;;42.70;20.53;;;;;;;-2.86;55.82;102660.31;4977072;28;20451;-70
2024/01/10 10:31:16;;;;;;;38.50;19.97;;;;;;;-2.74;54.92;102661.91;4976921;28;20436;-70
2024/01/10 10:33:45;;;;;;;46.70;21.87;;;;;;;-2.68;54.39;102656.59;4976895;28;20811;-71
2024/01/10 10:36:14;;;;;;;44.57;20.87;;;;;;;-2.62;54.14;102657.38;4977119;28;20421;-70
2024/01/10 10:38:41;;;;;;;52.93;21.10;;;;;;;-2.42;54.67;102646.66;4976689;28;20558;-71
2024/01/10 10:41:10;;;;;;;38.43;20.47;;;;;;;-2.32;54.68;102645.59;4976771;28;20531;-71
2024/01/10 10:43:39;;;;;;;45.37;20.43;;;;;;;-2.28;53.50;102649.91;4977035;28;20420;-71
2024/01/10 10:46:12;;;;;;;49.87;20.83;;;;;;;-2.22;52.83;102646.34;4976658;28;20440;-71
2024/01/10 10:48:38;;;;;;;59.10;20.57;;;;;;;-2.08;52.42;102647.84;4959616;28;20237;-71
2024/01/10 10:51:08;;;;;;;41.60;20.13;;;;;;;-1.94;51.92;102645.88;4976794;28;20439;-71
2024/01/10 10:53:38;;;;;;;41.57;20.77;;;;;;;-1.83;52.55;102640.47;4976565;28;20189;-71
2024/01/10 10:56:07;;;;;;;45.63;20.07;;;;;;;-1.81;50.50;102635.16;4976990;28;20264;-71
2024/01/10 10:58:42;;;;;;;38.93;19.53;;;;;;;-1.76;50.74;102633.34;4976306;28;20305;-71
2024/01/10 11:01:11;;;;;;;40.83;20.10;;;;;;;-1.85;51.32;102635.22;4976701;28;20216;-71
2024/01/10 11:03:44;;;;;;;51.17;22.17;;;;;;;-1.70;51.18;102638.50;4976444;28;20558;-71
2024/01/10 11:06:11;;;;;;;49.50;22.13;;;;;;;-1.63;50.31;102627.00;4976347;28;20669;-71
2024/01/10 11:08:50;;;;;;;47.07;21.03;;;;;;;-1.60;50.16;102640.03;4976384;28;20285;-72
2024/01/10 11:11:48;;;;;;;48.93;20.77;;;;;;;-1.49;49.93;102628.47;4976646;28;20289;-71